Time;durP1;ratioP1;P1;durP2;ratioP2;P2;SDS_P1;SDS_P2;PMS_P1;PMS_P2;Temp;Humidity;BMP_temperature;BMP_pressure;BME280_temperature;BME280_humidity;BME280_pressure;Samples;Min_cycle;Max_cycle;Signal;HPM_P1;HPM_P2
2021/08/30 00:00:09;;;;;;;22.42;11.45;;;;;;;16.80;70.40;99880.34;5012266;28;20091;-78
2021/08/30 00:02:35;;;;;;;23.15;11.70;;;;;;;16.83;70.34;99879.38;5018427;28;20499;-77
2021/08/30 00:05:02;;;;;;;37.13;12.90;;;;;;;16.76;70.37;99876.09;5037204;28;20048;-77
2021/08/30 00:07:28;;;;;;;22.63;12.13;;;;;;;16.86;70.46;99884.53;5014757;28;20492;-78
2021/08/30 00:09:54;;;;;;;24.08;11.20;;;;;;;16.69;70.65;99869.31;5014449;28;20041;-78
2021/08/30 00:12:20;;;;;;;20.38;10.38;;;;;;;16.81;70.86;99894.34;5032427;28;20038;-77
2021/08/30 00:14:45;;;;;;;16.83;10.50;;;;;;;16.65;70.53;99875.63;5032792;28;20108;-78
2021/08/30 00:17:11;;;;;;;18.20;9.60;;;;;;;16.65;70.82;99878.25;5014789;28;20037;-78
2021/08/30 00:19:37;;;;;;;18.48;9.52;;;;;;;16.72;70.85;99892.88;5031906;28;20045;-78
2021/08/30 00:22:04;;;;;;;16.70;9.32;;;;;;;16.62;70.98;99889.69;4998283;28;20069;-77
2021/08/30 00:24:31;;;;;;;18.48;8.65;;;;;;;16.63;71.08;99882.69;5013887;28;20049;-79
2021/08/30 00:26:57;;;;;;;17.75;9.07;;;;;;;16.63;71.09;99882.69;4997989;28;20445;-77
2021/08/30 00:29:25;;;;;;;15.95;8.70;;;;;;;16.64;71.09;99895.75;4998272;28;20064;-76
2021/08/30 00:31:58;;;;;;;16.05;9.05;;;;;;;16.62;71.13;99894.09;5032334;28;20508;-77
2021/08/30 00:34:24;;;;;;;17.70;9.50;;;;;;;16.64;71.06;99893.13;5033049;28;20041;-79
2021/08/30 00:36:50;;;;;;;19.50;9.32;;;;;;;16.60;70.98;99880.16;4991467;28;20536;-79
2021/08/30 00:39:23;;;;;;;21.67;9.52;;;;;;;16.64;71.23;99893.13;4980061;28;20046;-78
2021/08/30 00:41:50;;;;;;;24.75;10.07;;;;;;;16.59;70.76;99886.31;5011106;28;20045;-77
2021/08/30 00:44:16;;;;;;;17.25;8.48;;;;;;;16.44;71.19;99872.75;4989591;28;20045;-77
2021/08/30 00:46:42;;;;;;;15.85;8.85;;;;;;;16.52;71.33;99885.66;5034410;28;20141;-77
2021/08/30 00:49:07;;;;;;;16.35;8.70;;;;;;;16.47;71.37;99875.28;4995975;28;20580;-77
2021/08/30 00:51:33;;;;;;;14.05;8.57;;;;;;;16.46;71.32;99870.94;5012185;28;20088;-77
2021/08/30 00:53:59;;;;;;;18.38;9.43;;;;;;;16.50;71.31;99863.84;5012324;28;20434;-78
2021/08/30 00:56:28;;;;;;;22.17;9.75;;;;;;;16.64;71.12;99877.38;5012243;28;20513;-77
2021/08/30 00:58:55;;;;;;;18.90;9.88;;;;;;;16.65;71.21;99873.00;5016476;28;20064;-77
2021/08/30 01:01:22;;;;;;;17.33;9.25;;;;;;;16.65;71.03;99870.34;5031508;28;20536;-77
2021/08/30 01:03:50;;;;;;;17.33;9.25;;;;;;;16.59;71.36;99871.41;5014988;28;20092;-76
2021/08/30 01:06:24;;;;;;;19.08;9.68;;;;;;;16.60;71.51;99875.75;5031556;28;20410;-77
2021/08/30 01:09:06;;;;;;;19.58;9.77;;;;;;;16.62;71.34;99875.72;5032102;28;20124;-77
2021/08/30 01:11:38;;;;;;;19.27;9.43;;;;;;;16.58;71.21;99861.78;5031738;28;20038;-77
2021/08/30 01:14:10;;;;;;;21.20;9.45;;;;;;;16.60;71.28;99865.25;5030389;28;20468;-76
2021/08/30 01:16:37;;;;;;;;;;;;;;;16.60;71.28;99869.66;5031061;28;20041;-76
2021/08/30 01:19:11;;;;;;;19.73;8.65;;;;;;;16.56;71.35;99866.25;5014174;28;19917;-77
2021/08/30 01:21:41;;;;;;;19.13;8.73;;;;;;;16.57;71.24;99867.97;4997073;28;20119;-76
2021/08/30 01:24:12;;;;;;;17.33;9.02;;;;;;;16.50;71.40;99864.69;5031576;28;20041;-76
2021/08/30 01:26:46;;;;;;;19.27;8.82;;;;;;;16.42;70.98;99849.19;5032140;28;20049;-79
2021/08/30 01:29:23;;;;;;;21.05;9.05;;;;;;;16.54;71.22;99860.22;5013416;28;20029;-77
2021/08/30 01:32:06;;;;;;;15.85;8.80;;;;;;;16.47;71.25;99848.16;4997220;28;20042;-77
2021/08/30 01:34:33;;;;;;;16.85;10.25;;;;;;;16.48;71.39;99855.16;5047124;28;20064;-77
2021/08/30 01:36:59;;;;;;;18.40;9.90;;;;;;;16.46;71.37;99854.34;5005811;28;20505;-76
2021/08/30 01:39:32;;;;;;;17.23;9.95;;;;;;;16.54;71.55;99868.09;5013768;28;20084;-76
2021/08/30 01:42:00;;;;;;;19.05;9.40;;;;;;;16.48;71.48;99857.78;5013867;28;20423;-77
2021/08/30 01:44:26;;;;;;;18.85;9.45;;;;;;;16.44;71.27;99862.25;5013766;28;20072;-78
2021/08/30 01:46:53;;;;;;;27.40;10.23;;;;;;;16.34;71.41;99853.81;5016537;28;20501;-77
2021/08/30 01:49:22;;;;;;;23.85;9.60;;;;;;;16.38;71.39;99878.22;5016653;28;20091;-77
2021/08/30 01:51:49;;;;;;;23.67;11.13;;;;;;;16.34;71.58;99884.47;5034571;28;20039;-76
2021/08/30 01:54:16;;;;;;;23.45;10.10;;;;;;;15.93;71.76;99830.59;5016520;28;20673;-77
2021/08/30 01:56:47;;;;;;;20.05;9.65;;;;;;;16.20;71.89;99874.38;5034725;28;20482;-77
2021/08/30 02:02:00;;;;;;;17.63;9.38;;;;;;;16.08;72.16;99881.75;5016381;28;20047;-75
2021/08/30 02:04:26;;;;;;;17.95;9.07;;;;;;;15.86;72.13;99860.53;5034304;28;20127;-76
2021/08/30 02:06:52;;;;;;;19.13;8.85;;;;;;;15.93;72.40;99869.06;5034918;28;20044;-76
2021/08/30 02:09:17;;;;;;;16.83;9.68;;;;;;;15.65;72.56;99831.38;5029631;28;20037;-76
2021/08/30 02:11:43;;;;;;;26.65;12.07;;;;;;;15.84;72.40;99870.16;5032842;28;20084;-77
2021/08/30 02:14:09;;;;;;;20.77;11.43;;;;;;;15.79;72.78;99864.19;5033665;28;20157;-76
2021/08/30 02:16:36;;;;;;;23.38;11.13;;;;;;;15.69;73.04;99853.13;5034050;28;20056;-75
2021/08/30 02:19:24;;;;;;;17.70;9.90;;;;;;;15.81;73.36;99867.63;5033951;28;20045;-77
2021/08/30 02:22:03;;;;;;;18.35;9.02;;;;;;;15.91;73.33;99889.25;5036399;28;20059;-79
2021/08/30 02:24:32;;;;;;;27.10;10.43;;;;;;;15.92;72.96;99938.19;5035856;28;20037;-76
2021/08/30 02:27:04;;;;;;;17.52;9.10;;;;;;;15.87;73.27;99948.84;5036281;28;20049;-77
2021/08/30 02:29:47;;;;;;;23.67;9.98;;;;;;;15.78;73.22;99914.94;5053780;28;20060;-76
2021/08/30 02:32:14;;;;;;;15.88;8.18;;;;;;;15.53;73.45;99892.06;5036118;28;20069;-77
2021/08/30 02:34:44;;;;;;;17.88;8.85;;;;;;;15.82;73.60;99935.81;5036107;28;20128;-77
2021/08/30 02:37:11;;;;;;;16.92;8.45;;;;;;;15.86;73.67;99939.25;5006811;28;20454;-76
2021/08/30 02:39:38;;;;;;;17.38;8.65;;;;;;;15.88;73.39;99936.59;5033817;28;20044;-76
2021/08/30 02:42:06;;;;;;;14.52;8.30;;;;;;;15.80;73.57;99908.75;5016567;28;20049;-76
2021/08/30 02:44:33;;;;;;;14.85;7.95;;;;;;;15.91;73.45;99921.59;5033745;28;20045;-76
2021/08/30 02:47:00;;;;;;;17.83;7.45;;;;;;;15.99;73.43;99917.91;5016223;28;20045;-78
2021/08/30 02:49:27;;;;;;;15.05;6.82;;;;;;;16.18;73.31;99933.94;5033675;28;20111;-77
2021/08/30 02:51:55;;;;;;;16.20;7.13;;;;;;;16.14;73.21;99914.81;5048792;28;20064;-75
2021/08/30 02:54:22;;;;;;;12.68;7.03;;;;;;;16.36;73.08;99943.03;5035585;28;20139;-79
2021/08/30 02:56:49;;;;;;;14.18;7.38;;;;;;;16.45;72.71;99941.91;5014785;28;20056;-76
2021/08/30 02:59:15;;;;;;;12.48;7.03;;;;;;;16.45;72.75;99916.47;5015764;28;20176;-77
2021/08/30 03:01:43;;;;;;;17.73;7.28;;;;;;;16.56;72.55;99909.13;5015730;28;20049;-78
2021/08/30 03:04:11;;;;;;;13.13;7.10;;;;;;;16.68;72.28;99910.50;5032959;28;20037;-78
2021/08/30 03:06:39;;;;;;;14.93;8.10;;;;;;;16.82;72.25;99917.06;5016013;28;20421;-77
2021/08/30 03:09:05;;;;;;;13.35;7.60;;;;;;;16.79;71.99;99915.41;5053578;28;20246;-76
2021/08/30 03:11:32;;;;;;;19.55;9.00;;;;;;;16.97;71.87;99929.75;5053592;28;20043;-78
2021/08/30 03:14:00;;;;;;;14.55;7.88;;;;;;;16.96;71.99;99906.13;5054186;28;20044;-77
2021/08/30 03:16:27;;;;;;;16.45;8.18;;;;;;;17.06;71.73;99912.81;5035022;28;20032;-78
2021/08/30 03:18:56;;;;;;;19.50;8.68;;;;;;;16.65;71.41;99831.81;5019602;28;20125;-77
2021/08/30 03:21:25;;;;;;;20.63;9.10;;;;;;;17.28;71.50;99926.06;5034894;28;20060;-78
2021/08/30 03:23:52;;;;;;;18.33;8.52;;;;;;;17.28;71.26;99905.03;5053395;28;20059;-77
2021/08/30 03:26:20;;;;;;;13.77;8.27;;;;;;;17.38;71.31;99913.44;5034925;28;20052;-77
2021/08/30 03:28:52;;;;;;;15.35;8.50;;;;;;;17.41;71.02;99894.09;5019552;28;20098;-77
2021/08/30 03:31:20;;;;;;;14.65;8.70;;;;;;;17.44;70.77;99896.59;5053759;28;20037;-76
2021/08/30 03:33:47;;;;;;;16.90;8.80;;;;;;;17.54;70.78;99913.78;5035507;28;20052;-77
2021/08/30 03:36:14;;;;;;;17.90;8.80;;;;;;;17.42;70.56;99891.41;5030074;28;20045;-77
2021/08/30 03:38:40;;;;;;;14.10;7.70;;;;;;;17.61;70.60;99914.41;5015834;28;20038;-78
2021/08/30 03:41:07;;;;;;;17.38;8.63;;;;;;;17.55;70.24;99888.31;5033928;28;20033;-78
2021/08/30 03:43:33;;;;;;;15.52;9.00;;;;;;;17.54;70.52;99889.25;4999578;28;20084;-77
2021/08/30 03:46:00;;;;;;;19.98;9.20;;;;;;;17.58;70.24;99907.50;4986794;28;20452;-78
2021/08/30 03:48:26;;;;;;;18.02;9.88;;;;;;;17.58;70.49;99907.50;4998689;28;20049;-77
2021/08/30 03:50:53;;;;;;;21.23;10.02;;;;;;;17.48;70.66;99895.56;5015580;28;20084;-79
2021/08/30 03:53:22;;;;;;;24.80;9.55;;;;;;;17.53;70.70;99911.22;5015078;28;20044;-77
2021/08/30 03:55:49;;;;;;;18.67;9.40;;;;;;;17.53;71.07;99904.16;4984042;28;20053;-78
2021/08/30 03:58:21;;;;;;;20.45;9.60;;;;;;;17.60;71.28;99905.66;5017345;28;20130;-78
2021/08/30 04:00:47;;;;;;;19.03;10.10;;;;;;;17.63;71.15;99901.22;5035368;28;20128;-78
2021/08/30 04:03:14;;;;;;;16.30;9.45;;;;;;;17.49;70.95;99870.16;5019323;28;20051;-79
2021/08/30 04:05:41;;;;;;;23.80;10.25;;;;;;;17.43;71.08;99858.91;5003632;28;20531;-76
2021/08/30 04:08:08;;;;;;;18.08;8.85;;;;;;;17.45;71.28;99861.47;5038281;28;20512;-79
2021/08/30 04:10:35;;;;;;;18.23;10.15;;;;;;;17.49;71.43;99864.88;5002811;28;20080;-76
2021/08/30 04:13:03;;;;;;;19.70;10.60;;;;;;;17.54;71.40;99873.47;5018026;28;20531;-77
2021/08/30 04:15:32;;;;;;;18.38;10.40;;;;;;;17.62;71.60;99874.03;5035226;28;20118;-75
2021/08/30 04:17:59;;;;;;;16.92;10.73;;;;;;;17.61;71.72;99891.59;5036202;28;20045;-78
2021/08/30 04:20:24;;;;;;;19.58;10.32;;;;;;;17.67;71.70;99908.94;5018869;28;20041;-76
2021/08/30 04:22:50;;;;;;;19.90;10.90;;;;;;;17.63;71.92;99901.22;5037735;28;20091;-76
2021/08/30 04:25:17;;;;;;;19.50;11.68;;;;;;;17.54;71.17;99878.72;5004939;28;20045;-75
2021/08/30 04:27:42;;;;;;;22.20;11.05;;;;;;;17.55;72.10;99898.84;5015204;28;20038;-77
2021/08/30 04:30:10;;;;;;;17.65;10.88;;;;;;;17.61;72.25;99924.94;4982725;28;20041;-77
2021/08/30 04:32:37;;;;;;;20.05;11.48;;;;;;;17.70;72.32;99940.41;4998735;28;20151;-76
2021/08/30 04:35:10;;;;;;;19.23;11.10;;;;;;;17.70;72.31;99935.13;5015170;28;20044;-77
2021/08/30 04:37:36;;;;;;;18.52;11.02;;;;;;;17.76;71.74;99937.53;5015224;28;20042;-77
2021/08/30 04:40:05;;;;;;;19.83;10.50;;;;;;;17.73;72.20;99940.28;5014482;28;20528;-77
2021/08/30 04:42:31;;;;;;;18.27;9.60;;;;;;;17.73;72.18;99947.31;5015141;28;20040;-78
2021/08/30 04:44:57;;;;;;;18.15;10.15;;;;;;;17.68;72.19;99942.22;5018449;28;20041;-77
2021/08/30 04:47:23;;;;;;;18.27;9.40;;;;;;;17.69;72.17;99961.47;5015331;28;20041;-76
2021/08/30 04:49:49;;;;;;;20.13;10.35;;;;;;;17.42;72.19;99958.94;5014252;28;20062;-76
2021/08/30 04:52:18;;;;;;;16.98;10.68;;;;;;;17.21;72.92;99929.84;4999118;28;20041;-78
2021/08/30 04:54:47;;;;;;;20.70;10.95;;;;;;;17.15;73.10;99932.66;4983224;28;20133;-77
2021/08/30 04:57:13;;;;;;;16.25;11.13;;;;;;;17.00;73.28;99942.78;5039573;28;20040;-78
2021/08/30 04:59:38;;;;;;;18.58;10.35;;;;;;;16.88;74.27;99945.78;5056787;28;20029;-77
2021/08/30 05:02:04;;;;;;;18.52;9.98;;;;;;;16.91;74.62;99940.44;5013644;28;20049;-77
2021/08/30 05:04:30;;;;;;;16.67;11.10;;;;;;;17.02;74.71;99954.09;5036207;28;20087;-77
2021/08/30 05:06:56;;;;;;;20.20;11.57;;;;;;;17.01;74.96;99957.63;5012056;28;20122;-77
2021/08/30 05:09:22;;;;;;;19.15;11.05;;;;;;;16.99;75.25;99945.47;5050609;28;20041;-77
2021/08/30 05:11:48;;;;;;;19.13;11.60;;;;;;;17.09;75.12;99964.41;5026194;28;20037;-76
2021/08/30 05:14:14;;;;;;;19.70;11.73;;;;;;;16.94;75.35;99960.50;5032203;28;20040;-77
2021/08/30 05:16:40;;;;;;;26.15;12.70;;;;;;;16.74;75.46;99932.25;5015348;28;20114;-77
2021/08/30 05:19:05;;;;;;;22.55;12.35;;;;;;;16.71;75.48;99931.44;4978074;28;20521;-79
2021/08/30 05:21:31;;;;;;;22.33;11.02;;;;;;;16.52;76.05;99922.44;5016985;28;20050;-78
2021/08/30 05:23:57;;;;;;;18.48;10.82;;;;;;;16.49;76.53;99926.00;4982485;28;20065;-78
2021/08/30 05:26:23;;;;;;;24.33;11.70;;;;;;;16.65;77.05;99946.53;5024461;28;20585;-78
2021/08/30 05:28:49;;;;;;;24.40;12.27;;;;;;;16.68;76.76;99934.16;5001575;28;20065;-77
2021/08/30 05:31:15;;;;;;;27.08;12.52;;;;;;;16.71;77.15;99934.06;5003795;28;20446;-78
2021/08/30 05:33:41;;;;;;;20.15;10.82;;;;;;;16.83;77.38;99937.19;4996364;28;20038;-79
2021/08/30 05:36:07;;;;;;;24.13;11.00;;;;;;;16.83;77.38;99919.66;4999058;28;20554;-76
2021/08/30 05:38:34;;;;;;;25.00;11.75;;;;;;;16.90;77.41;99901.06;5035307;28;20128;-79
2021/08/30 05:41:00;;;;;;;23.33;11.85;;;;;;;16.99;77.05;99913.94;5018752;28;20567;-77
2021/08/30 05:43:26;;;;;;;27.73;11.40;;;;;;;16.96;77.09;99917.53;5017587;28;20037;-76
2021/08/30 05:45:52;;;;;;;34.83;13.07;;;;;;;16.84;77.19;99904.75;5017965;28;20033;-77
2021/08/30 05:48:18;;;;;;;31.60;12.30;;;;;;;17.07;77.21;99916.28;5001175;28;20096;-78
2021/08/30 05:50:43;;;;;;;22.98;10.77;;;;;;;17.12;77.46;99899.44;5042182;28;20046;-78
2021/08/30 05:53:11;;;;;;;23.23;11.45;;;;;;;17.39;77.36;99925.69;5024807;28;20044;-81
2021/08/30 05:55:37;;;;;;;16.30;9.70;;;;;;;17.60;77.42;99925.84;5002476;28;20139;-80
2021/08/30 05:58:02;;;;;;;17.05;10.43;;;;;;;17.76;77.24;99931.41;5037157;28;20107;-79
2021/08/30 06:00:28;;;;;;;15.75;9.05;;;;;;;17.84;76.70;99933.75;4982915;28;20529;-82
2021/08/30 06:02:55;;;;;;;12.27;8.57;;;;;;;17.70;76.14;99900.06;4999286;28;20046;-78
2021/08/30 06:05:21;;;;;;;13.23;9.73;;;;;;;17.95;76.51;99918.44;5034911;28;20467;-81
2021/08/30 06:07:47;;;;;;;14.60;8.70;;;;;;;18.11;75.99;99933.69;5048725;28;20037;-80
2021/08/30 06:10:14;;;;;;;14.07;9.15;;;;;;;18.03;75.56;99926.91;5022419;28;20120;-80
2021/08/30 06:12:40;;;;;;;16.70;9.93;;;;;;;18.08;75.76;99932.03;5023012;28;20045;-77
2021/08/30 06:15:07;;;;;;;15.05;10.00;;;;;;;18.05;75.65;99919.81;5037634;28;20036;-79
2021/08/30 06:17:33;;;;;;;13.48;9.43;;;;;;;18.16;75.71;99926.47;5006708;28;20048;-82
2021/08/30 06:19:59;;;;;;;14.48;10.23;;;;;;;18.36;75.37;99939.72;5037908;28;20033;-80
2021/08/30 06:22:24;;;;;;;14.98;9.15;;;;;;;18.46;75.29;99944.59;5038473;28;20523;-79
2021/08/30 06:24:50;;;;;;;15.90;10.07;;;;;;;18.04;74.96;99869.88;5037654;28;20076;-78
2021/08/30 06:27:18;;;;;;;14.70;9.88;;;;;;;18.61;74.88;99957.19;5037931;28;20131;-79
2021/08/30 06:29:44;;;;;;;14.88;9.20;;;;;;;18.70;74.69;99957.72;5057165;28;20051;-78
2021/08/30 06:32:30;;;;;;;19.67;10.23;;;;;;;18.79;74.42;99954.75;5041916;28;20036;-81
2021/08/30 06:35:05;;;;;;;15.10;9.15;;;;;;;18.47;74.48;99888.38;5027159;28;20124;-79
2021/08/30 06:37:31;;;;;;;11.52;8.75;;;;;;;18.84;74.27;99902.69;5005523;28;20064;-78
2021/08/30 06:39:57;;;;;;;14.00;8.88;;;;;;;19.55;73.99;99935.75;5000942;28;20041;-77
2021/08/30 06:42:23;;;;;;;11.75;8.77;;;;;;;20.07;73.50;99966.06;4999123;28;20041;-77
2021/08/30 06:44:52;;;;;;;12.45;8.63;;;;;;;20.31;72.89;99948.22;5016359;28;20141;-77
2021/08/30 06:47:18;;;;;;;13.32;10.35;;;;;;;20.41;71.32;99944.19;5014632;28;20041;-77
2021/08/30 06:49:43;;;;;;;14.50;9.45;;;;;;;20.50;70.94;99934.13;4982253;28;20417;-78
2021/08/30 06:52:10;;;;;;;12.02;8.98;;;;;;;20.81;71.28;99936.16;4998047;28;20060;-79
2021/08/30 06:54:57;;;;;;;12.63;8.52;;;;;;;21.07;69.97;99928.72;4990168;28;20054;-79
2021/08/30 06:57:22;;;;;;;14.43;7.90;;;;;;;21.27;69.86;99925.06;4995468;28;20058;-77
2021/08/30 06:59:48;;;;;;;11.65;8.82;;;;;;;21.50;68.38;99944.19;4980052;28;20045;-79
2021/08/30 07:02:15;;;;;;;11.77;8.20;;;;;;;21.66;69.04;99929.22;5017647;28;20085;-79
2021/08/30 07:05:01;;;;;;;9.93;8.13;;;;;;;22.54;67.64;99943.94;5035440;28;20037;-78
2021/08/30 07:07:27;;;;;;;12.15;7.60;;;;;;;22.78;65.77;99916.94;5013890;28;20567;-79
2021/08/30 07:09:53;;;;;;;11.77;8.18;;;;;;;22.84;63.96;99954.56;5034631;28;20127;-78
2021/08/30 07:12:20;;;;;;;9.98;7.70;;;;;;;22.79;63.89;99958.44;5034489;28;20049;-76
2021/08/30 07:14:46;;;;;;;11.50;7.90;;;;;;;22.90;62.93;99952.50;5015934;28;20131;-77
2021/08/30 07:17:12;;;;;;;12.43;7.47;;;;;;;22.94;63.33;99928.41;4999970;28;20413;-77
2021/08/30 07:19:38;;;;;;;12.70;8.13;;;;;;;23.58;63.03;99929.94;5015457;28;20044;-78
2021/08/30 07:22:07;;;;;;;9.15;7.90;;;;;;;23.70;61.72;99925.69;4999942;28;20448;-78
2021/08/30 07:24:33;;;;;;;12.43;8.50;;;;;;;23.53;60.80;99914.31;5033976;28;20128;-78
2021/08/30 07:27:02;;;;;;;12.00;8.80;;;;;;;23.31;59.14;99939.50;5034288;28;20077;-78
2021/08/30 07:29:31;;;;;;;13.40;9.60;;;;;;;22.79;59.54;99937.22;5001336;28;20038;-77
2021/08/30 07:31:58;;;;;;;13.35;9.88;;;;;;;22.60;60.62;99921.53;5019184;28;20077;-77
2021/08/30 07:34:24;;;;;;;15.25;9.48;;;;;;;22.78;60.19;99932.84;5003242;28;20064;-77
2021/08/30 07:36:54;;;;;;;13.75;10.07;;;;;;;23.14;60.45;99931.66;5010481;28;20053;-77
2021/08/30 07:39:25;;;;;;;14.05;10.70;;;;;;;23.28;60.56;99901.69;4998857;28;20057;-77
2021/08/30 07:41:52;;;;;;;21.00;9.60;;;;;;;23.71;59.25;99912.31;4998434;28;20112;-78
2021/08/30 07:44:19;;;;;;;14.40;9.30;;;;;;;23.81;58.65;99919.69;4998323;28;20033;-77
2021/08/30 07:46:46;;;;;;;12.15;8.88;;;;;;;23.87;58.47;99921.97;5016365;28;20153;-78
2021/08/30 07:49:12;;;;;;;16.08;8.88;;;;;;;23.58;57.25;99884.81;4999254;28;20042;-78
2021/08/30 07:51:41;;;;;;;16.73;9.10;;;;;;;23.44;58.39;99905.09;5001152;28;20099;-80
2021/08/30 07:54:09;;;;;;;17.20;9.98;;;;;;;23.08;57.80;99908.97;5003539;28;20513;-77
2021/08/30 07:56:38;;;;;;;19.17;8.57;;;;;;;22.80;58.75;99891.19;5007204;28;20057;-80
2021/08/30 07:59:11;;;;;;;18.75;10.25;;;;;;;22.60;58.39;99929.50;5033598;28;20097;-80
2021/08/30 08:01:58;;;;;;;14.15;9.25;;;;;;;22.24;59.72;99881.09;5026667;28;20055;-79
2021/08/30 08:04:25;;;;;;;17.20;8.95;;;;;;;22.62;60.24;99924.97;4981016;28;20054;-80
2021/08/30 08:06:55;;;;;;;16.52;9.60;;;;;;;22.72;60.45;99891.66;5006382;28;20049;-79
2021/08/30 08:09:22;;;;;;;16.70;9.40;;;;;;;23.93;59.75;99934.91;5018848;28;20089;-76
2021/08/30 08:11:48;;;;;;;14.20;9.10;;;;;;;24.88;58.98;99896.97;5013092;28;20077;-77
2021/08/30 08:14:14;;;;;;;17.98;8.95;;;;;;;25.45;56.40;99901.09;5014901;28;20042;-77
2021/08/30 08:16:40;;;;;;;16.05;9.32;;;;;;;25.75;55.20;99910.53;5012788;28;20099;-77
2021/08/30 08:19:06;;;;;;;14.55;9.15;;;;;;;25.54;53.27;99900.44;5014870;28;20510;-77
2021/08/30 08:21:35;;;;;;;17.40;9.88;;;;;;;24.99;54.10;99905.06;4997897;28;20038;-76
2021/08/30 08:24:06;;;;;;;10.77;8.52;;;;;;;24.86;55.28;99899.72;4983554;28;20041;-75
2021/08/30 08:26:32;;;;;;;15.15;8.70;;;;;;;25.71;55.80;99895.72;4996254;28;20046;-76
2021/08/30 08:28:58;;;;;;;14.02;8.40;;;;;;;27.00;53.99;99884.59;5015096;28;20030;-77
2021/08/30 08:31:24;;;;;;;15.70;8.32;;;;;;;28.33;53.64;99869.78;4998802;28;20104;-76
2021/08/30 08:33:50;;;;;;;12.30;8.32;;;;;;;29.63;48.90;99899.00;4997339;28;20100;-76
2021/08/30 08:36:18;;;;;;;12.35;7.97;;;;;;;30.60;46.63;99888.69;4996164;28;20049;-78
2021/08/30 08:38:44;;;;;;;10.13;8.07;;;;;;;32.10;44.18;99873.66;4996228;28;20068;-77
2021/08/30 08:41:16;;;;;;;9.63;7.70;;;;;;;32.56;41.12;99874.47;4965364;28;20141;-76
2021/08/30 08:43:59;;;;;;;10.25;6.88;;;;;;;32.83;39.74;99767.66;4981661;28;20526;-77
2021/08/30 08:46:35;;;;;;;10.45;6.72;;;;;;;34.43;38.53;99855.22;4981927;28;20037;-77
2021/08/30 08:49:08;;;;;;;11.52;7.18;;;;;;;34.68;37.19;99850.66;4981445;28;20042;-79
2021/08/30 08:51:49;;;;;;;9.30;7.07;;;;;;;35.63;33.97;99840.16;4982661;28;20048;-77
2021/08/30 08:54:15;;;;;;;10.40;6.70;;;;;;;36.26;34.43;99850.97;5023622;28;20141;-77
2021/08/30 08:56:44;;;;;;;10.88;6.78;;;;;;;37.40;32.64;99854.66;5035488;28;20044;-78
2021/08/30 08:59:18;;;;;;;7.78;5.78;;;;;;;38.51;31.09;99867.25;5021350;28;20072;-80
2021/08/30 09:01:44;;;;;;;8.50;5.97;;;;;;;38.57;29.58;99836.56;5053507;28;20040;-77
2021/08/30 09:04:11;;;;;;;10.00;5.93;;;;;;;39.22;28.44;99854.63;5034189;28;20040;-77
2021/08/30 09:06:42;;;;;;;8.55;6.00;;;;;;;39.64;27.71;99849.16;5019047;28;20048;-78
2021/08/30 09:09:16;;;;;;;6.82;5.70;;;;;;;39.53;27.86;99854.16;5043467;28;20063;-77
2021/08/30 09:11:44;;;;;;;8.93;5.38;;;;;;;39.99;27.17;99839.03;5048354;28;20152;-78
2021/08/30 09:14:23;;;;;;;6.80;5.85;;;;;;;40.96;25.04;99848.75;5055758;28;20065;-77
2021/08/30 09:17:05;;;;;;;7.43;5.90;;;;;;;39.94;26.19;99833.41;5004109;28;20040;-78
2021/08/30 09:19:33;;;;;;;8.40;5.38;;;;;;;39.82;25.96;99802.34;5003957;28;20295;-77
2021/08/30 09:22:02;;;;;;;6.72;5.80;;;;;;;37.89;27.25;99831.47;5036994;28;20071;-77
2021/08/30 09:24:32;;;;;;;8.13;6.13;;;;;;;37.82;27.56;99794.28;5020100;28;20057;-77
2021/08/30 09:27:10;;;;;;;8.55;5.50;;;;;;;39.01;27.26;99856.38;5017896;28;20407;-76
2021/08/30 09:29:43;;;;;;;11.73;7.03;;;;;;;38.87;26.79;99844.56;5051967;28;20126;-77
2021/08/30 09:32:19;;;;;;;7.80;5.40;;;;;;;37.90;28.42;99842.19;5002023;28;20057;-78
2021/08/30 09:34:53;;;;;;;8.48;5.85;;;;;;;36.69;27.67;99829.63;5001691;28;20124;-78
2021/08/30 09:37:26;;;;;;;9.50;5.93;;;;;;;35.63;28.92;99830.19;5015966;28;20053;-78
2021/08/30 09:40:04;;;;;;;8.70;6.75;;;;;;;34.62;31.24;99852.19;5004175;28;20040;-79
2021/08/30 09:42:31;;;;;;;8.75;5.85;;;;;;;33.99;31.49;99842.81;5036967;28;20108;-78
2021/08/30 09:45:13;;;;;;;8.68;5.82;;;;;;;33.10;32.80;99813.41;5022346;28;20128;-79
2021/08/30 09:47:51;;;;;;;8.60;6.00;;;;;;;32.03;34.58;99838.44;5022724;28;20044;-78
2021/08/30 09:50:17;;;;;;;13.23;6.80;;;;;;;31.60;35.49;99832.72;5007353;28;20438;-77
2021/08/30 09:52:44;;;;;;;12.15;6.57;;;;;;;31.20;36.93;99848.19;5022243;28;20049;-76
2021/08/30 09:55:11;;;;;;;9.35;6.30;;;;;;;30.62;37.11;99756.00;5003692;28;20149;-78
2021/08/30 09:57:38;;;;;;;10.02;6.10;;;;;;;30.85;37.02;99848.81;5037428;28;20056;-79
2021/08/30 10:00:07;;;;;;;7.35;5.57;;;;;;;30.45;37.47;99853.31;5006802;28;20052;-78
2021/08/30 10:02:34;;;;;;;8.10;5.90;;;;;;;30.22;37.72;99829.44;5004860;28;20060;-77
2021/08/30 10:05:04;;;;;;;8.55;5.80;;;;;;;30.34;38.63;99846.25;5027901;28;20033;-78
2021/08/30 10:07:40;;;;;;;12.88;6.55;;;;;;;30.38;38.61;99846.81;5050578;28;20024;-78
2021/08/30 10:10:08;;;;;;;9.88;5.40;;;;;;;30.21;38.19;99849.22;5057603;28;20041;-79
2021/08/30 10:12:35;;;;;;;10.15;5.78;;;;;;;29.86;38.91;99843.34;5073386;28;20075;-77
2021/08/30 10:15:01;;;;;;;9.00;6.18;;;;;;;29.74;39.46;99852.50;5055704;28;20048;-76
2021/08/30 10:17:27;;;;;;;8.00;5.53;;;;;;;29.36;39.85;99819.19;5071979;28;20047;-77
2021/08/30 10:19:59;;;;;;;9.68;5.90;;;;;;;29.33;40.59;99851.59;5055377;28;20045;-79
2021/08/30 10:22:25;;;;;;;8.57;5.60;;;;;;;29.08;40.12;99813.56;5039714;28;20041;-78
2021/08/30 10:24:52;;;;;;;7.95;5.47;;;;;;;29.12;40.64;99845.28;5052950;28;20158;-77
2021/08/30 10:27:34;;;;;;;9.05;5.80;;;;;;;29.22;40.69;99844.50;5008369;28;20036;-77
2021/08/30 10:30:08;;;;;;;9.73;5.43;;;;;;;29.28;40.27;99844.81;5020685;28;20136;-77
2021/08/30 10:32:40;;;;;;;8.55;6.93;;;;;;;28.95;40.86;99819.13;5017514;28;20099;-76
2021/08/30 10:35:22;;;;;;;8.18;5.22;;;;;;;29.05;41.22;99852.13;5001170;28;20076;-77
2021/08/30 10:38:10;;;;;;;8.65;5.60;;;;;;;29.04;41.12;99849.59;5035471;28;20056;-76
2021/08/30 10:40:38;;;;;;;11.13;5.63;;;;;;;28.80;40.62;99832.81;5016197;28;20193;-77
2021/08/30 10:43:14;;;;;;;7.82;5.40;;;;;;;28.86;40.87;99844.84;5016765;28;20429;-77
2021/08/30 10:45:56;;;;;;;13.23;5.68;;;;;;;28.86;40.83;99847.53;4972839;28;20046;-78
2021/08/30 10:49:06;;;;;;;8.35;5.05;;;;;;;28.34;40.05;99791.22;4998345;28;20124;-76
2021/08/30 10:51:38;;;;;;;7.40;4.90;;;;;;;28.40;40.29;99853.09;4980217;28;20484;-77
2021/08/30 10:54:14;;;;;;;7.25;5.07;;;;;;;28.29;40.31;99841.56;5033525;28;20061;-77
2021/08/30 10:56:41;;;;;;;8.07;5.07;;;;;;;28.50;40.31;99842.44;5034279;28;20151;-78
2021/08/30 10:59:10;;;;;;;9.05;5.05;;;;;;;28.71;40.20;99841.63;5033221;28;20045;-78
2021/08/30 11:01:56;;;;;;;9.20;4.97;;;;;;;28.77;39.37;99845.63;5000260;28;20111;-78
2021/08/30 11:04:36;;;;;;;6.38;4.90;;;;;;;28.66;39.66;99834.00;4999539;28;20034;-76
2021/08/30 11:07:05;;;;;;;7.57;4.82;;;;;;;28.71;39.49;99831.75;4997277;28;20084;-78
2021/08/30 11:09:31;;;;;;;8.05;5.63;;;;;;;28.81;39.37;99837.19;5013334;28;20453;-77
2021/08/30 11:12:19;;;;;;;9.70;5.50;;;;;;;28.88;39.49;99836.69;5015331;28;20048;-77
2021/08/30 11:14:55;;;;;;;;;;;;;;;29.21;38.76;99842.81;5012567;28;20034;-76
2021/08/30 11:17:32;;;;;;;8.57;4.97;;;;;;;28.83;38.96;99829.88;5034144;28;19902;-77
2021/08/30 11:20:00;;;;;;;5.55;4.72;;;;;;;28.54;39.34;99819.81;5016424;28;20042;-77
2021/08/30 11:22:27;;;;;;;9.63;5.15;;;;;;;28.44;39.12;99829.59;4997191;28;20050;-76
2021/08/30 11:24:53;;;;;;;6.72;4.95;;;;;;;28.05;39.51;99779.25;5013247;28;20049;-77
2021/08/30 11:27:29;;;;;;;9.43;4.70;;;;;;;28.22;39.74;99826.03;5012740;28;20128;-76
2021/08/30 11:30:09;;;;;;;7.28;4.47;;;;;;;28.05;39.82;99811.34;5014303;28;20041;-76
2021/08/30 11:32:40;;;;;;;9.90;5.18;;;;;;;27.91;39.91;99817.84;4962293;28;20137;-79
2021/08/30 11:35:42;;;;;;;6.30;4.53;;;;;;;27.45;40.45;99749.38;4976663;28;20049;-76